sensor_id;sensor_type;location;lat;lon;timestamp;P1;durP1;ratioP1;P2;durP2;ratioP2
10605;SDS011;5350;42.698;23.148;2023-09-19T00:01:31;9.82;;;7.93;;
10605;SDS011;5350;42.698;23.148;2023-09-19T00:03:59;9.27;;;7.72;;
10605;SDS011;5350;42.698;23.148;2023-09-19T00:06:28;9.60;;;7.93;;
10605;SDS011;5350;42.698;23.148;2023-09-19T00:08:56;8.20;;;7.40;;
10605;SDS011;5350;42.698;23.148;2023-09-19T00:11:25;14.32;;;7.63;;
10605;SDS011;5350;42.698;23.148;2023-09-19T00:13:52;8.88;;;7.93;;
10605;SDS011;5350;42.698;23.148;2023-09-19T00:16:19;9.85;;;7.40;;
10605;SDS011;5350;42.698;23.148;2023-09-19T00:18:46;7.93;;;7.15;;
10605;SDS011;5350;42.698;23.148;2023-09-19T00:21:16;11.65;;;7.22;;
10605;SDS011;5350;42.698;23.148;2023-09-19T00:23:44;7.93;;;7.13;;
10605;SDS011;5350;42.698;23.148;2023-09-19T00:26:11;9.15;;;7.05;;
10605;SDS011;5350;42.698;23.148;2023-09-19T00:28:38;7.53;;;6.78;;
10605;SDS011;5350;42.698;23.148;2023-09-19T00:31:07;8.23;;;7.43;;
10605;SDS011;5350;42.698;23.148;2023-09-19T00:33:34;7.55;;;6.85;;
10605;SDS011;5350;42.698;23.148;2023-09-19T00:36:01;7.43;;;6.72;;
10605;SDS011;5350;42.698;23.148;2023-09-19T00:38:31;9.80;;;7.32;;
10605;SDS011;5350;42.698;23.148;2023-09-19T00:40:58;7.85;;;6.72;;
10605;SDS011;5350;42.698;23.148;2023-09-19T00:43:25;6.65;;;5.95;;
10605;SDS011;5350;42.698;23.148;2023-09-19T00:45:53;7.82;;;6.55;;
10605;SDS011;5350;42.698;23.148;2023-09-19T00:48:21;7.68;;;6.88;;
10605;SDS011;5350;42.698;23.148;2023-09-19T00:50:50;7.60;;;6.70;;
10605;SDS011;5350;42.698;23.148;2023-09-19T00:53:19;7.68;;;6.22;;
10605;SDS011;5350;42.698;23.148;2023-09-19T00:55:50;7.28;;;6.63;;
10605;SDS011;5350;42.698;23.148;2023-09-19T00:58:17;7.72;;;6.40;;
10605;SDS011;5350;42.698;23.148;2023-09-19T01:00:44;8.35;;;6.93;;
10605;SDS011;5350;42.698;23.148;2023-09-19T01:03:11;7.97;;;6.10;;
10605;SDS011;5350;42.698;23.148;2023-09-19T01:05:39;7.03;;;6.32;;
10605;SDS011;5350;42.698;23.148;2023-09-19T01:08:07;6.32;;;5.72;;
10605;SDS011;5350;42.698;23.148;2023-09-19T01:10:36;9.70;;;6.25;;
10605;SDS011;5350;42.698;23.148;2023-09-19T01:13:08;7.25;;;6.20;;
10605;SDS011;5350;42.698;23.148;2023-09-19T01:15:44;6.75;;;6.05;;
10605;SDS011;5350;42.698;23.148;2023-09-19T01:18:21;7.50;;;6.80;;
10605;SDS011;5350;42.698;23.148;2023-09-19T01:20:56;6.93;;;6.30;;
10605;SDS011;5350;42.698;23.148;2023-09-19T01:23:35;7.28;;;6.63;;
10605;SDS011;5350;42.698;23.148;2023-09-19T01:26:27;7.80;;;7.00;;
10605;SDS011;5350;42.698;23.148;2023-09-19T01:29:16;7.97;;;6.40;;
10605;SDS011;5350;42.698;23.148;2023-09-19T01:31:56;9.40;;;6.20;;
10605;SDS011;5350;42.698;23.148;2023-09-19T01:34:26;7.57;;;5.80;;
10605;SDS011;5350;42.698;23.148;2023-09-19T01:36:53;6.97;;;6.25;;
10605;SDS011;5350;42.698;23.148;2023-09-19T01:39:20;9.18;;;6.22;;
10605;SDS011;5350;42.698;23.148;2023-09-19T01:44:36;7.53;;;6.35;;
10605;SDS011;5350;42.698;23.148;2023-09-19T01:47:13;7.07;;;6.38;;
10605;SDS011;5350;42.698;23.148;2023-09-19T01:49:50;8.60;;;6.70;;
10605;SDS011;5350;42.698;23.148;2023-09-19T01:52:22;8.07;;;6.70;;
10605;SDS011;5350;42.698;23.148;2023-09-19T01:54:56;6.73;;;6.13;;
10605;SDS011;5350;42.698;23.148;2023-09-19T01:57:32;8.60;;;6.33;;
10605;SDS011;5350;42.698;23.148;2023-09-19T02:00:08;6.40;;;5.75;;
10605;SDS011;5350;42.698;23.148;2023-09-19T02:02:39;6.63;;;6.03;;
10605;SDS011;5350;42.698;23.148;2023-09-19T02:05:10;7.60;;;6.80;;
10605;SDS011;5350;42.698;23.148;2023-09-19T02:07:37;9.82;;;6.68;;
10605;SDS011;5350;42.698;23.148;2023-09-19T02:10:05;6.63;;;6.00;;
10605;SDS011;5350;42.698;23.148;2023-09-19T02:12:35;7.22;;;6.53;;
10605;SDS011;5350;42.698;23.148;2023-09-19T02:15:01;7.10;;;6.40;;
10605;SDS011;5350;42.698;23.148;2023-09-19T02:17:32;7.30;;;6.60;;
10605;SDS011;5350;42.698;23.148;2023-09-19T02:20:00;7.20;;;6.50;;
10605;SDS011;5350;42.698;23.148;2023-09-19T02:22:27;7.38;;;6.28;;
10605;SDS011;5350;42.698;23.148;2023-09-19T02:24:54;7.07;;;6.37;;
10605;SDS011;5350;42.698;23.148;2023-09-19T02:27:23;8.30;;;7.13;;
10605;SDS011;5350;42.698;23.148;2023-09-19T02:29:50;7.33;;;6.50;;
10605;SDS011;5350;42.698;23.148;2023-09-19T02:32:17;6.95;;;6.25;;
10605;SDS011;5350;42.698;23.148;2023-09-19T02:34:44;6.93;;;6.27;;
10605;SDS011;5350;42.698;23.148;2023-09-19T02:37:12;7.60;;;6.50;;
10605;SDS011;5350;42.698;23.148;2023-09-19T02:39:41;7.30;;;6.07;;
10605;SDS011;5350;42.698;23.148;2023-09-19T02:42:08;7.38;;;6.60;;
10605;SDS011;5350;42.698;23.148;2023-09-19T02:44:34;8.65;;;7.53;;
10605;SDS011;5350;42.698;23.148;2023-09-19T02:47:03;7.63;;;6.88;;
10605;SDS011;5350;42.698;23.148;2023-09-19T02:49:30;9.60;;;6.80;;
10605;SDS011;5350;42.698;23.148;2023-09-19T02:51:57;7.63;;;6.20;;
10605;SDS011;5350;42.698;23.148;2023-09-19T02:54:25;8.73;;;6.47;;
10605;SDS011;5350;42.698;23.148;2023-09-19T02:56:53;9.60;;;6.50;;
10605;SDS011;5350;42.698;23.148;2023-09-19T02:59:20;8.53;;;6.83;;
10605;SDS011;5350;42.698;23.148;2023-09-19T03:01:46;7.93;;;6.67;;
10605;SDS011;5350;42.698;23.148;2023-09-19T03:04:13;10.10;;;6.72;;
10605;SDS011;5350;42.698;23.148;2023-09-19T03:06:44;8.70;;;6.87;;
10605;SDS011;5350;42.698;23.148;2023-09-19T03:09:11;11.03;;;6.60;;
10605;SDS011;5350;42.698;23.148;2023-09-19T03:11:40;6.75;;;6.05;;
10605;SDS011;5350;42.698;23.148;2023-09-19T03:14:07;7.70;;;6.10;;
10605;SDS011;5350;42.698;23.148;2023-09-19T03:16:34;7.27;;;6.57;;
10605;SDS011;5350;42.698;23.148;2023-09-19T03:19:02;8.47;;;7.27;;
10605;SDS011;5350;42.698;23.148;2023-09-19T03:21:30;10.90;;;7.27;;
10605;SDS011;5350;42.698;23.148;2023-09-19T03:23:57;8.03;;;6.90;;
10605;SDS011;5350;42.698;23.148;2023-09-19T03:26:23;11.10;;;7.50;;
10605;SDS011;5350;42.698;23.148;2023-09-19T03:28:52;9.10;;;7.23;;
10605;SDS011;5350;42.698;23.148;2023-09-19T03:31:19;8.37;;;7.00;;
10605;SDS011;5350;42.698;23.148;2023-09-19T03:33:46;8.53;;;7.03;;
10605;SDS011;5350;42.698;23.148;2023-09-19T03:36:13;8.37;;;6.80;;
10605;SDS011;5350;42.698;23.148;2023-09-19T03:38:39;9.87;;;7.60;;
10605;SDS011;5350;42.698;23.148;2023-09-19T03:41:06;8.40;;;6.70;;
10605;SDS011;5350;42.698;23.148;2023-09-19T03:43:33;8.80;;;6.30;;
10605;SDS011;5350;42.698;23.148;2023-09-19T03:46:02;7.73;;;6.93;;
10605;SDS011;5350;42.698;23.148;2023-09-19T03:48:30;7.97;;;6.87;;
10605;SDS011;5350;42.698;23.148;2023-09-19T03:50:57;8.75;;;6.97;;
10605;SDS011;5350;42.698;23.148;2023-09-19T03:53:24;7.70;;;6.90;;
10605;SDS011;5350;42.698;23.148;2023-09-19T03:55:50;7.57;;;6.50;;
10605;SDS011;5350;42.698;23.148;2023-09-19T03:58:17;8.47;;;6.43;;
10605;SDS011;5350;42.698;23.148;2023-09-19T04:00:44;10.03;;;6.90;;
10605;SDS011;5350;42.698;23.148;2023-09-19T04:03:12;7.47;;;6.47;;
10605;SDS011;5350;42.698;23.148;2023-09-19T04:05:44;8.50;;;6.93;;
10605;SDS011;5350;42.698;23.148;2023-09-19T04:08:11;8.93;;;6.70;;
10605;SDS011;5350;42.698;23.148;2023-09-19T04:10:38;8.33;;;6.90;;
10605;SDS011;5350;42.698;23.148;2023-09-19T04:13:05;8.00;;;7.20;;
10605;SDS011;5350;42.698;23.148;2023-09-19T04:15:32;10.30;;;6.68;;
10605;SDS011;5350;42.698;23.148;2023-09-19T04:17:59;7.43;;;6.37;;
10605;SDS011;5350;42.698;23.148;2023-09-19T04:20:27;6.87;;;6.23;;
10605;SDS011;5350;42.698;23.148;2023-09-19T04:22:55;8.70;;;6.53;;
10605;SDS011;5350;42.698;23.148;2023-09-19T04:25:21;11.53;;;6.83;;
10605;SDS011;5350;42.698;23.148;2023-09-19T04:27:48;7.83;;;6.10;;
10605;SDS011;5350;42.698;23.148;2023-09-19T04:30:15;7.50;;;6.80;;
10605;SDS011;5350;42.698;23.148;2023-09-19T04:32:42;6.63;;;6.03;;
10605;SDS011;5350;42.698;23.148;2023-09-19T04:35:09;7.63;;;6.37;;
10605;SDS011;5350;42.698;23.148;2023-09-19T04:37:38;6.47;;;5.87;;
10605;SDS011;5350;42.698;23.148;2023-09-19T04:40:07;8.10;;;6.53;;
10605;SDS011;5350;42.698;23.148;2023-09-19T04:42:38;8.07;;;6.67;;
10605;SDS011;5350;42.698;23.148;2023-09-19T04:45:07;8.02;;;6.75;;
10605;SDS011;5350;42.698;23.148;2023-09-19T04:47:35;7.77;;;6.47;;
10605;SDS011;5350;42.698;23.148;2023-09-19T04:50:04;7.10;;;6.50;;
10605;SDS011;5350;42.698;23.148;2023-09-19T04:52:39;6.47;;;5.87;;
10605;SDS011;5350;42.698;23.148;2023-09-19T04:55:09;8.20;;;6.85;;
10605;SDS011;5350;42.698;23.148;2023-09-19T04:57:42;8.13;;;6.95;;
10605;SDS011;5350;42.698;23.148;2023-09-19T05:00:10;7.93;;;7.13;;
10605;SDS011;5350;42.698;23.148;2023-09-19T05:02:39;9.07;;;7.20;;
10605;SDS011;5350;42.698;23.148;2023-09-19T05:05:07;11.02;;;6.88;;
10605;SDS011;5350;42.698;23.148;2023-09-19T05:07:34;9.88;;;7.63;;
10605;SDS011;5350;42.698;23.148;2023-09-19T05:10:02;8.57;;;7.50;;
10605;SDS011;5350;42.698;23.148;2023-09-19T05:12:32;8.32;;;7.15;;
10605;SDS011;5350;42.698;23.148;2023-09-19T05:14:59;15.13;;;7.68;;
10605;SDS011;5350;42.698;23.148;2023-09-19T05:17:26;9.00;;;7.85;;
10605;SDS011;5350;42.698;23.148;2023-09-19T05:19:53;9.05;;;8.15;;
10605;SDS011;5350;42.698;23.148;2023-09-19T05:22:19;11.90;;;7.72;;
10605;SDS011;5350;42.698;23.148;2023-09-19T05:24:46;8.52;;;7.63;;
10605;SDS011;5350;42.698;23.148;2023-09-19T05:27:14;10.50;;;8.45;;
10605;SDS011;5350;42.698;23.148;2023-09-19T05:29:42;9.98;;;6.82;;
10605;SDS011;5350;42.698;23.148;2023-09-19T05:32:09;8.70;;;7.18;;
10605;SDS011;5350;42.698;23.148;2023-09-19T05:34:36;9.35;;;7.32;;
10605;SDS011;5350;42.698;23.148;2023-09-19T05:37:03;9.13;;;6.65;;
10605;SDS011;5350;42.698;23.148;2023-09-19T05:39:32;7.60;;;6.80;;
10605;SDS011;5350;42.698;23.148;2023-09-19T05:41:58;8.20;;;7.10;;
10605;SDS011;5350;42.698;23.148;2023-09-19T05:44:27;25.33;;;7.88;;
10605;SDS011;5350;42.698;23.148;2023-09-19T05:46:54;8.82;;;6.95;;
10605;SDS011;5350;42.698;23.148;2023-09-19T05:49:23;7.65;;;6.85;;
10605;SDS011;5350;42.698;23.148;2023-09-19T05:51:49;10.25;;;6.80;;
10605;SDS011;5350;42.698;23.148;2023-09-19T05:54:18;7.95;;;7.15;;
10605;SDS011;5350;42.698;23.148;2023-09-19T05:56:46;9.95;;;6.70;;
10605;SDS011;5350;42.698;23.148;2023-09-19T05:59:14;9.25;;;6.97;;
10605;SDS011;5350;42.698;23.148;2023-09-19T06:01:42;9.88;;;7.07;;
10605;SDS011;5350;42.698;23.148;2023-09-19T06:04:09;15.05;;;7.25;;
10605;SDS011;5350;42.698;23.148;2023-09-19T06:06:36;12.55;;;7.03;;
10605;SDS011;5350;42.698;23.148;2023-09-19T06:09:05;8.27;;;6.65;;
10605;SDS011;5350;42.698;23.148;2023-09-19T06:11:33;14.35;;;6.75;;
10605;SDS011;5350;42.698;23.148;2023-09-19T06:14:00;8.13;;;6.43;;
10605;SDS011;5350;42.698;23.148;2023-09-19T06:16:27;8.15;;;6.60;;
10605;SDS011;5350;42.698;23.148;2023-09-19T06:18:55;10.98;;;6.55;;
10605;SDS011;5350;42.698;23.148;2023-09-19T06:21:22;12.35;;;6.13;;
10605;SDS011;5350;42.698;23.148;2023-09-19T06:23:49;7.35;;;5.97;;
10605;SDS011;5350;42.698;23.148;2023-09-19T06:26:16;6.43;;;5.82;;
10605;SDS011;5350;42.698;23.148;2023-09-19T06:28:42;7.03;;;5.75;;
10605;SDS011;5350;42.698;23.148;2023-09-19T06:31:09;8.18;;;6.22;;
10605;SDS011;5350;42.698;23.148;2023-09-19T06:33:36;8.40;;;6.07;;
10605;SDS011;5350;42.698;23.148;2023-09-19T06:36:05;7.63;;;5.78;;
10605;SDS011;5350;42.698;23.148;2023-09-19T06:38:32;6.72;;;6.03;;
10605;SDS011;5350;42.698;23.148;2023-09-19T06:41:01;16.17;;;6.28;;
10605;SDS011;5350;42.698;23.148;2023-09-19T06:43:30;8.85;;;6.47;;
10605;SDS011;5350;42.698;23.148;2023-09-19T06:45:57;18.30;;;6.43;;
10605;SDS011;5350;42.698;23.148;2023-09-19T06:48:25;7.90;;;5.90;;
10605;SDS011;5350;42.698;23.148;2023-09-19T06:50:52;8.55;;;6.82;;
10605;SDS011;5350;42.698;23.148;2023-09-19T06:53:21;8.93;;;7.25;;
10605;SDS011;5350;42.698;23.148;2023-09-19T06:55:49;8.20;;;6.38;;
10605;SDS011;5350;42.698;23.148;2023-09-19T06:58:16;7.40;;;5.80;;
10605;SDS011;5350;42.698;23.148;2023-09-19T07:00:42;7.38;;;5.72;;
10605;SDS011;5350;42.698;23.148;2023-09-19T07:03:09;8.65;;;6.10;;
10605;SDS011;5350;42.698;23.148;2023-09-19T07:05:37;6.93;;;5.97;;
10605;SDS011;5350;42.698;23.148;2023-09-19T07:08:04;7.18;;;5.95;;
10605;SDS011;5350;42.698;23.148;2023-09-19T07:10:33;6.82;;;5.93;;
10605;SDS011;5350;42.698;23.148;2023-09-19T07:13:01;7.00;;;5.68;;
10605;SDS011;5350;42.698;23.148;2023-09-19T07:15:29;9.48;;;6.35;;
10605;SDS011;5350;42.698;23.148;2023-09-19T07:17:58;6.88;;;6.18;;
10605;SDS011;5350;42.698;23.148;2023-09-19T07:20:26;6.63;;;5.95;;
10605;SDS011;5350;42.698;23.148;2023-09-19T07:22:56;6.68;;;5.50;;
10605;SDS011;5350;42.698;23.148;2023-09-19T07:25:24;7.63;;;5.70;;
10605;SDS011;5350;42.698;23.148;2023-09-19T07:27:53;7.60;;;6.53;;
10605;SDS011;5350;42.698;23.148;2023-09-19T07:30:21;7.60;;;6.38;;
10605;SDS011;5350;42.698;23.148;2023-09-19T07:32:48;10.88;;;6.38;;
10605;SDS011;5350;42.698;23.148;2023-09-19T07:35:15;10.50;;;7.10;;
10605;SDS011;5350;42.698;23.148;2023-09-19T07:37:42;9.77;;;6.70;;
10605;SDS011;5350;42.698;23.148;2023-09-19T07:40:09;10.38;;;6.60;;
10605;SDS011;5350;42.698;23.148;2023-09-19T07:42:36;6.70;;;5.82;;
10605;SDS011;5350;42.698;23.148;2023-09-19T07:45:07;7.80;;;6.32;;
10605;SDS011;5350;42.698;23.148;2023-09-19T07:47:39;8.25;;;6.25;;
10605;SDS011;5350;42.698;23.148;2023-09-19T07:50:06;6.90;;;6.30;;
10605;SDS011;5350;42.698;23.148;2023-09-19T07:52:33;10.75;;;5.63;;
10605;SDS011;5350;42.698;23.148;2023-09-19T07:54:59;8.90;;;6.10;;
10605;SDS011;5350;42.698;23.148;2023-09-19T07:57:26;11.50;;;6.80;;
10605;SDS011;5350;42.698;23.148;2023-09-19T07:59:54;10.88;;;6.47;;
10605;SDS011;5350;42.698;23.148;2023-09-19T08:02:22;6.45;;;5.85;;
10605;SDS011;5350;42.698;23.148;2023-09-19T08:04:48;11.63;;;6.88;;
10605;SDS011;5350;42.698;23.148;2023-09-19T08:07:17;12.35;;;6.70;;
10605;SDS011;5350;42.698;23.148;2023-09-19T08:09:44;9.95;;;6.68;;
10605;SDS011;5350;42.698;23.148;2023-09-19T08:12:13;7.57;;;6.28;;
10605;SDS011;5350;42.698;23.148;2023-09-19T08:14:40;8.45;;;6.90;;
10605;SDS011;5350;42.698;23.148;2023-09-19T08:17:07;8.45;;;7.43;;
10605;SDS011;5350;42.698;23.148;2023-09-19T08:19:35;12.45;;;7.03;;
10605;SDS011;5350;42.698;23.148;2023-09-19T08:22:07;8.27;;;7.10;;
10605;SDS011;5350;42.698;23.148;2023-09-19T08:24:35;8.68;;;6.70;;
10605;SDS011;5350;42.698;23.148;2023-09-19T08:27:03;14.43;;;7.47;;
10605;SDS011;5350;42.698;23.148;2023-09-19T08:29:33;8.55;;;6.68;;
10605;SDS011;5350;42.698;23.148;2023-09-19T08:32:00;10.45;;;7.40;;
10605;SDS011;5350;42.698;23.148;2023-09-19T08:34:27;9.23;;;6.80;;
10605;SDS011;5350;42.698;23.148;2023-09-19T08:36:59;9.80;;;6.82;;
10605;SDS011;5350;42.698;23.148;2023-09-19T08:39:26;8.32;;;7.05;;
10605;SDS011;5350;42.698;23.148;2023-09-19T08:41:59;13.60;;;6.45;;
10605;SDS011;5350;42.698;23.148;2023-09-19T08:44:27;11.25;;;6.80;;
10605;SDS011;5350;42.698;23.148;2023-09-19T08:46:55;11.05;;;6.80;;
10605;SDS011;5350;42.698;23.148;2023-09-19T08:49:33;8.80;;;6.18;;
10605;SDS011;5350;42.698;23.148;2023-09-19T08:52:13;9.18;;;7.00;;
10605;SDS011;5350;42.698;23.148;2023-09-19T08:54:46;8.65;;;6.47;;
10605;SDS011;5350;42.698;23.148;2023-09-19T08:57:18;7.78;;;6.65;;
10605;SDS011;5350;42.698;23.148;2023-09-19T08:59:47;11.20;;;7.13;;
10605;SDS011;5350;42.698;23.148;2023-09-19T09:02:15;8.77;;;6.80;;
10605;SDS011;5350;42.698;23.148;2023-09-19T09:04:44;8.50;;;6.38;;
10605;SDS011;5350;42.698;23.148;2023-09-19T09:07:13;8.80;;;6.10;;
10605;SDS011;5350;42.698;23.148;2023-09-19T09:09:41;10.57;;;6.85;;
10605;SDS011;5350;42.698;23.148;2023-09-19T09:12:10;11.07;;;6.53;;
10605;SDS011;5350;42.698;23.148;2023-09-19T09:14:38;8.80;;;6.32;;
10605;SDS011;5350;42.698;23.148;2023-09-19T09:17:06;8.10;;;6.40;;
10605;SDS011;5350;42.698;23.148;2023-09-19T09:19:33;11.70;;;6.50;;
10605;SDS011;5350;42.698;23.148;2023-09-19T09:22:06;9.30;;;5.72;;
10605;SDS011;5350;42.698;23.148;2023-09-19T09:24:35;11.00;;;6.30;;
10605;SDS011;5350;42.698;23.148;2023-09-19T09:27:04;7.20;;;5.43;;
10605;SDS011;5350;42.698;23.148;2023-09-19T09:29:43;7.05;;;5.85;;
10605;SDS011;5350;42.698;23.148;2023-09-19T09:32:21;9.95;;;6.38;;
10605;SDS011;5350;42.698;23.148;2023-09-19T09:34:50;10.80;;;5.43;;
10605;SDS011;5350;42.698;23.148;2023-09-19T09:37:18;9.45;;;6.00;;
10605;SDS011;5350;42.698;23.148;2023-09-19T09:39:50;6.75;;;5.38;;
10605;SDS011;5350;42.698;23.148;2023-09-19T09:45:16;7.28;;;5.55;;
10605;SDS011;5350;42.698;23.148;2023-09-19T09:47:53;9.75;;;5.35;;
10605;SDS011;5350;42.698;23.148;2023-09-19T09:50:25;10.02;;;5.80;;
10605;SDS011;5350;42.698;23.148;2023-09-19T09:52:54;6.57;;;5.68;;
10605;SDS011;5350;42.698;23.148;2023-09-19T09:55:29;9.15;;;6.00;;
10605;SDS011;5350;42.698;23.148;2023-09-19T09:58:23;10.88;;;5.25;;
10605;SDS011;5350;42.698;23.148;2023-09-19T10:00:54;10.75;;;6.00;;
10605;SDS011;5350;42.698;23.148;2023-09-19T10:03:30;11.80;;;5.57;;
10605;SDS011;5350;42.698;23.148;2023-09-19T10:05:59;8.85;;;5.90;;
10605;SDS011;5350;42.698;23.148;2023-09-19T10:08:27;11.07;;;5.47;;
10605;SDS011;5350;42.698;23.148;2023-09-19T10:10:57;8.13;;;5.57;;
10605;SDS011;5350;42.698;23.148;2023-09-19T10:13:30;9.98;;;5.15;;
10605;SDS011;5350;42.698;23.148;2023-09-19T10:16:03;11.48;;;5.18;;
10605;SDS011;5350;42.698;23.148;2023-09-19T10:18:35;7.07;;;5.43;;
10605;SDS011;5350;42.698;23.148;2023-09-19T10:21:04;9.70;;;5.60;;
10605;SDS011;5350;42.698;23.148;2023-09-19T10:23:32;8.15;;;5.57;;
10605;SDS011;5350;42.698;23.148;2023-09-19T10:26:03;8.98;;;5.68;;
10605;SDS011;5350;42.698;23.148;2023-09-19T10:28:31;10.23;;;5.70;;
10605;SDS011;5350;42.698;23.148;2023-09-19T10:31:00;11.05;;;5.60;;
10605;SDS011;5350;42.698;23.148;2023-09-19T10:33:28;6.85;;;5.55;;
10605;SDS011;5350;42.698;23.148;2023-09-19T10:36:02;31.58;;;7.53;;
10605;SDS011;5350;42.698;23.148;2023-09-19T10:38:31;5.78;;;5.25;;
10605;SDS011;5350;42.698;23.148;2023-09-19T10:41:02;12.68;;;5.80;;
10605;SDS011;5350;42.698;23.148;2023-09-19T10:43:32;9.50;;;5.18;;
10605;SDS011;5350;42.698;23.148;2023-09-19T10:46:01;7.88;;;5.13;;
10605;SDS011;5350;42.698;23.148;2023-09-19T10:48:29;11.07;;;5.60;;
10605;SDS011;5350;42.698;23.148;2023-09-19T10:50:58;7.53;;;5.65;;
10605;SDS011;5350;42.698;23.148;2023-09-19T10:53:32;13.60;;;5.70;;
10605;SDS011;5350;42.698;23.148;2023-09-19T10:56:10;10.57;;;5.82;;
10605;SDS011;5350;42.698;23.148;2023-09-19T10:58:45;8.23;;;5.05;;
10605;SDS011;5350;42.698;23.148;2023-09-19T11:01:12;19.60;;;6.35;;
10605;SDS011;5350;42.698;23.148;2023-09-19T11:03:40;8.55;;;5.25;;
10605;SDS011;5350;42.698;23.148;2023-09-19T11:06:10;7.88;;;5.35;;
10605;SDS011;5350;42.698;23.148;2023-09-19T11:08:58;7.22;;;5.82;;
10605;SDS011;5350;42.698;23.148;2023-09-19T11:11:49;8.55;;;5.38;;
10605;SDS011;5350;42.698;23.148;2023-09-19T11:20:24;6.45;;;4.80;;
10605;SDS011;5350;42.698;23.148;2023-09-19T11:23:17;7.72;;;5.60;;
10605;SDS011;5350;42.698;23.148;2023-09-19T11:25:48;10.82;;;5.40;;
10605;SDS011;5350;42.698;23.148;2023-09-19T11:40:36;9.13;;;6.05;;
10605;SDS011;5350;42.698;23.148;2023-09-19T11:46:04;8.88;;;5.72;;
10605;SDS011;5350;42.698;23.148;2023-09-19T11:48:40;21.35;;;7.07;;
10605;SDS011;5350;42.698;23.148;2023-09-19T11:51:12;9.50;;;6.13;;
10605;SDS011;5350;42.698;23.148;2023-09-19T11:53:51;7.57;;;5.68;;
10605;SDS011;5350;42.698;23.148;2023-09-19T11:56:20;8.73;;;5.68;;
10605;SDS011;5350;42.698;23.148;2023-09-19T11:58:49;11.50;;;6.07;;
10605;SDS011;5350;42.698;23.148;2023-09-19T12:01:22;7.93;;;5.97;;
10605;SDS011;5350;42.698;23.148;2023-09-19T12:03:52;14.85;;;6.57;;
10605;SDS011;5350;42.698;23.148;2023-09-19T12:06:22;10.43;;;6.50;;
10605;SDS011;5350;42.698;23.148;2023-09-19T12:08:49;7.97;;;5.15;;
10605;SDS011;5350;42.698;23.148;2023-09-19T12:11:19;8.82;;;6.00;;
10605;SDS011;5350;42.698;23.148;2023-09-19T12:13:48;6.85;;;5.80;;
10605;SDS011;5350;42.698;23.148;2023-09-19T12:16:15;10.88;;;5.20;;
10605;SDS011;5350;42.698;23.148;2023-09-19T12:18:48;11.77;;;5.70;;
10605;SDS011;5350;42.698;23.148;2023-09-19T12:21:26;9.63;;;5.63;;
10605;SDS011;5350;42.698;23.148;2023-09-19T12:23:59;8.98;;;5.55;;
10605;SDS011;5350;42.698;23.148;2023-09-19T12:26:37;9.55;;;5.78;;
10605;SDS011;5350;42.698;23.148;2023-09-19T12:29:10;7.75;;;5.45;;
10605;SDS011;5350;42.698;23.148;2023-09-19T12:31:46;13.95;;;6.03;;
10605;SDS011;5350;42.698;23.148;2023-09-19T12:34:20;10.63;;;5.43;;
10605;SDS011;5350;42.698;23.148;2023-09-19T12:36:48;10.45;;;5.07;;
10605;SDS011;5350;42.698;23.148;2023-09-19T12:39:24;8.23;;;5.43;;
10605;SDS011;5350;42.698;23.148;2023-09-19T12:41:51;7.65;;;5.43;;
10605;SDS011;5350;42.698;23.148;2023-09-19T12:44:19;10.52;;;5.90;;
10605;SDS011;5350;42.698;23.148;2023-09-19T12:46:49;24.02;;;5.90;;
10605;SDS011;5350;42.698;23.148;2023-09-19T12:49:17;13.85;;;5.40;;
10605;SDS011;5350;42.698;23.148;2023-09-19T12:51:46;15.27;;;5.68;;
10605;SDS011;5350;42.698;23.148;2023-09-19T12:54:13;9.95;;;5.15;;
10605;SDS011;5350;42.698;23.148;2023-09-19T12:56:41;7.97;;;5.40;;
10605;SDS011;5350;42.698;23.148;2023-09-19T12:59:09;6.68;;;5.25;;
10605;SDS011;5350;42.698;23.148;2023-09-19T13:01:38;6.45;;;5.05;;
10605;SDS011;5350;42.698;23.148;2023-09-19T13:04:10;8.15;;;5.20;;
10605;SDS011;5350;42.698;23.148;2023-09-19T13:06:40;5.80;;;4.82;;
10605;SDS011;5350;42.698;23.148;2023-09-19T13:09:10;10.13;;;4.97;;
10605;SDS011;5350;42.698;23.148;2023-09-19T13:11:37;9.43;;;5.32;;
10605;SDS011;5350;42.698;23.148;2023-09-19T13:14:19;9.68;;;5.15;;
10605;SDS011;5350;42.698;23.148;2023-09-19T13:16:54;7.38;;;4.93;;
10605;SDS011;5350;42.698;23.148;2023-09-19T13:19:39;10.43;;;5.60;;
10605;SDS011;5350;42.698;23.148;2023-09-19T13:25:08;7.70;;;4.82;;
10605;SDS011;5350;42.698;23.148;2023-09-19T13:27:39;8.48;;;5.93;;
10605;SDS011;5350;42.698;23.148;2023-09-19T13:30:07;7.18;;;5.13;;
10605;SDS011;5350;42.698;23.148;2023-09-19T13:32:35;9.35;;;5.10;;
10605;SDS011;5350;42.698;23.148;2023-09-19T13:35:02;12.95;;;5.25;;
10605;SDS011;5350;42.698;23.148;2023-09-19T13:37:32;5.22;;;4.75;;
10605;SDS011;5350;42.698;23.148;2023-09-19T13:40:00;10.68;;;4.88;;
10605;SDS011;5350;42.698;23.148;2023-09-19T13:42:28;8.27;;;5.47;;
10605;SDS011;5350;42.698;23.148;2023-09-19T13:44:55;9.18;;;5.20;;
10605;SDS011;5350;42.698;23.148;2023-09-19T13:47:22;20.08;;;5.10;;
10605;SDS011;5350;42.698;23.148;2023-09-19T13:49:51;7.78;;;4.90;;
10605;SDS011;5350;42.698;23.148;2023-09-19T13:52:18;7.72;;;5.05;;
10605;SDS011;5350;42.698;23.148;2023-09-19T13:54:45;5.15;;;4.72;;
10605;SDS011;5350;42.698;23.148;2023-09-19T13:57:12;7.30;;;5.00;;
10605;SDS011;5350;42.698;23.148;2023-09-19T13:59:40;9.27;;;5.05;;
10605;SDS011;5350;42.698;23.148;2023-09-19T14:02:07;12.10;;;4.90;;
10605;SDS011;5350;42.698;23.148;2023-09-19T14:04:34;5.80;;;4.88;;
10605;SDS011;5350;42.698;23.148;2023-09-19T14:07:00;7.47;;;4.35;;
10605;SDS011;5350;42.698;23.148;2023-09-19T14:09:28;8.05;;;4.57;;
10605;SDS011;5350;42.698;23.148;2023-09-19T14:11:55;6.25;;;4.32;;
10605;SDS011;5350;42.698;23.148;2023-09-19T14:14:22;7.90;;;4.38;;
10605;SDS011;5350;42.698;23.148;2023-09-19T14:16:50;6.95;;;4.50;;
10605;SDS011;5350;42.698;23.148;2023-09-19T14:19:17;6.55;;;4.78;;
10605;SDS011;5350;42.698;23.148;2023-09-19T14:21:44;5.60;;;4.50;;
10605;SDS011;5350;42.698;23.148;2023-09-19T14:24:10;8.50;;;5.75;;
10605;SDS011;5350;42.698;23.148;2023-09-19T14:26:42;8.15;;;5.78;;
10605;SDS011;5350;42.698;23.148;2023-09-19T14:29:09;10.43;;;6.80;;
10605;SDS011;5350;42.698;23.148;2023-09-19T14:31:37;6.88;;;5.20;;
10605;SDS011;5350;42.698;23.148;2023-09-19T14:34:06;8.55;;;5.18;;
10605;SDS011;5350;42.698;23.148;2023-09-19T14:36:34;8.07;;;5.50;;
10605;SDS011;5350;42.698;23.148;2023-09-19T14:39:01;9.73;;;5.95;;
10605;SDS011;5350;42.698;23.148;2023-09-19T14:41:28;12.73;;;7.22;;
10605;SDS011;5350;42.698;23.148;2023-09-19T14:43:56;9.23;;;5.75;;
10605;SDS011;5350;42.698;23.148;2023-09-19T14:46:23;7.28;;;5.10;;
10605;SDS011;5350;42.698;23.148;2023-09-19T14:48:50;11.27;;;4.88;;
10605;SDS011;5350;42.698;23.148;2023-09-19T14:51:18;7.15;;;4.60;;
10605;SDS011;5350;42.698;23.148;2023-09-19T14:53:45;9.52;;;4.80;;
10605;SDS011;5350;42.698;23.148;2023-09-19T14:56:12;7.22;;;4.60;;
10605;SDS011;5350;42.698;23.148;2023-09-19T14:58:43;5.60;;;4.45;;
10605;SDS011;5350;42.698;23.148;2023-09-19T15:01:11;10.07;;;4.53;;
10605;SDS011;5350;42.698;23.148;2023-09-19T15:03:39;8.60;;;4.78;;
10605;SDS011;5350;42.698;23.148;2023-09-19T15:06:08;5.53;;;4.50;;
10605;SDS011;5350;42.698;23.148;2023-09-19T15:08:41;9.82;;;4.72;;
10605;SDS011;5350;42.698;23.148;2023-09-19T15:11:11;7.28;;;4.30;;
10605;SDS011;5350;42.698;23.148;2023-09-19T15:13:38;5.40;;;4.07;;
10605;SDS011;5350;42.698;23.148;2023-09-19T15:16:07;6.55;;;4.53;;
10605;SDS011;5350;42.698;23.148;2023-09-19T15:18:35;8.23;;;4.50;;
10605;SDS011;5350;42.698;23.148;2023-09-19T15:21:03;8.20;;;4.50;;
10605;SDS011;5350;42.698;23.148;2023-09-19T15:23:29;9.55;;;4.53;;
10605;SDS011;5350;42.698;23.148;2023-09-19T15:25:59;7.50;;;4.63;;
10605;SDS011;5350;42.698;23.148;2023-09-19T15:28:26;6.68;;;4.70;;